sensor_id;sensor_type;location;lat;lon;timestamp;P1;durP1;ratioP1;P2;durP2;ratioP2
68168;SDS011;54981;50.206;15.978;2024-02-26T00:02:46;35.92;;;25.55;;
68168;SDS011;54981;50.206;15.978;2024-02-26T00:17:46;30.05;;;24.90;;
68168;SDS011;54981;50.206;15.978;2024-02-26T00:32:46;27.30;;;23.63;;
68168;SDS011;54981;50.206;15.978;2024-02-26T00:47:47;28.70;;;22.15;;
68168;SDS011;54981;50.206;15.978;2024-02-26T01:02:48;22.60;;;19.30;;
68168;SDS011;54981;50.206;15.978;2024-02-26T01:17:51;19.02;;;17.17;;
68168;SDS011;54981;50.206;15.978;2024-02-26T01:32:52;23.38;;;19.02;;
68168;SDS011;54981;50.206;15.978;2024-02-26T01:47:53;21.30;;;19.27;;
68168;SDS011;54981;50.206;15.978;2024-02-26T02:02:54;20.98;;;19.02;;
68168;SDS011;54981;50.206;15.978;2024-02-26T02:17:55;18.02;;;16.15;;
68168;SDS011;54981;50.206;15.978;2024-02-26T02:32:55;18.63;;;17.00;;
68168;SDS011;54981;50.206;15.978;2024-02-26T02:47:58;19.08;;;17.25;;
68168;SDS011;54981;50.206;15.978;2024-02-26T03:02:58;19.52;;;17.77;;
68168;SDS011;54981;50.206;15.978;2024-02-26T03:17:59;25.67;;;22.05;;
68168;SDS011;54981;50.206;15.978;2024-02-26T03:32:59;33.83;;;27.38;;
68168;SDS011;54981;50.206;15.978;2024-02-26T03:47:59;25.30;;;20.95;;
68168;SDS011;54981;50.206;15.978;2024-02-26T04:03:00;35.58;;;24.92;;
68168;SDS011;54981;50.206;15.978;2024-02-26T04:18:00;59.33;;;36.38;;
68168;SDS011;54981;50.206;15.978;2024-02-26T04:33:00;39.92;;;27.30;;
68168;SDS011;54981;50.206;15.978;2024-02-26T04:48:01;62.00;;;38.25;;
68168;SDS011;54981;50.206;15.978;2024-02-26T05:03:01;61.22;;;36.55;;
68168;SDS011;54981;50.206;15.978;2024-02-26T05:18:02;50.65;;;33.45;;
68168;SDS011;54981;50.206;15.978;2024-02-26T05:33:03;47.33;;;33.00;;
68168;SDS011;54981;50.206;15.978;2024-02-26T05:48:03;49.72;;;29.70;;
68168;SDS011;54981;50.206;15.978;2024-02-26T06:03:04;46.60;;;30.17;;
68168;SDS011;54981;50.206;15.978;2024-02-26T06:18:04;39.88;;;30.05;;
68168;SDS011;54981;50.206;15.978;2024-02-26T06:33:05;42.97;;;28.60;;
68168;SDS011;54981;50.206;15.978;2024-02-26T06:48:05;38.35;;;26.00;;
68168;SDS011;54981;50.206;15.978;2024-02-26T07:03:06;44.78;;;28.48;;
68168;SDS011;54981;50.206;15.978;2024-02-26T07:18:06;51.55;;;29.70;;
68168;SDS011;54981;50.206;15.978;2024-02-26T07:33:07;46.22;;;31.33;;
68168;SDS011;54981;50.206;15.978;2024-02-26T07:48:07;36.97;;;28.35;;
68168;SDS011;54981;50.206;15.978;2024-02-26T08:03:07;45.47;;;41.38;;
68168;SDS011;54981;50.206;15.978;2024-02-26T08:18:08;35.88;;;32.70;;
68168;SDS011;54981;50.206;15.978;2024-02-26T08:33:08;30.13;;;27.33;;
68168;SDS011;54981;50.206;15.978;2024-02-26T08:48:10;26.38;;;24.08;;
68168;SDS011;54981;50.206;15.978;2024-02-26T09:03:10;23.17;;;21.17;;
68168;SDS011;54981;50.206;15.978;2024-02-26T09:18:10;22.98;;;20.90;;
68168;SDS011;54981;50.206;15.978;2024-02-26T09:33:11;26.67;;;24.33;;
68168;SDS011;54981;50.206;15.978;2024-02-26T09:48:16;23.87;;;21.67;;
68168;SDS011;54981;50.206;15.978;2024-02-26T10:03:17;18.97;;;17.27;;
68168;SDS011;54981;50.206;15.978;2024-02-26T10:18:22;16.03;;;14.43;;
68168;SDS011;54981;50.206;15.978;2024-02-26T10:33:24;16.13;;;14.67;;
68168;SDS011;54981;50.206;15.978;2024-02-26T10:48:24;17.33;;;15.73;;
68168;SDS011;54981;50.206;15.978;2024-02-26T11:03:25;20.42;;;18.63;;
68168;SDS011;54981;50.206;15.978;2024-02-26T11:18:26;16.07;;;14.37;;
68168;SDS011;54981;50.206;15.978;2024-02-26T11:33:27;19.60;;;17.73;;
68168;SDS011;54981;50.206;15.978;2024-02-26T11:48:28;21.65;;;19.48;;
68168;SDS011;54981;50.206;15.978;2024-02-26T12:03:29;13.60;;;12.25;;
68168;SDS011;54981;50.206;15.978;2024-02-26T12:18:31;16.93;;;15.43;;
68168;SDS011;54981;50.206;15.978;2024-02-26T12:33:31;14.02;;;12.68;;
68168;SDS011;54981;50.206;15.978;2024-02-26T12:48:33;13.13;;;11.83;;
68168;SDS011;54981;50.206;15.978;2024-02-26T13:03:34;15.88;;;14.38;;
68168;SDS011;54981;50.206;15.978;2024-02-26T13:18:35;12.33;;;11.33;;
68168;SDS011;54981;50.206;15.978;2024-02-26T13:33:36;12.77;;;11.63;;
68168;SDS011;54981;50.206;15.978;2024-02-26T13:48:36;12.23;;;11.18;;
68168;SDS011;54981;50.206;15.978;2024-02-26T14:03:37;12.73;;;11.50;;
68168;SDS011;54981;50.206;15.978;2024-02-26T14:18:37;12.77;;;11.50;;
68168;SDS011;54981;50.206;15.978;2024-02-26T14:33:38;12.75;;;11.55;;
68168;SDS011;54981;50.206;15.978;2024-02-26T14:48:40;14.60;;;13.27;;
68168;SDS011;54981;50.206;15.978;2024-02-26T15:03:40;11.77;;;10.63;;
68168;SDS011;54981;50.206;15.978;2024-02-26T15:18:40;14.18;;;12.95;;
68168;SDS011;54981;50.206;15.978;2024-02-26T15:33:40;14.88;;;13.57;;
68168;SDS011;54981;50.206;15.978;2024-02-26T15:48:41;15.10;;;13.65;;
68168;SDS011;54981;50.206;15.978;2024-02-26T16:03:41;17.83;;;16.02;;
68168;SDS011;54981;50.206;15.978;2024-02-26T16:18:42;18.38;;;16.55;;
68168;SDS011;54981;50.206;15.978;2024-02-26T16:33:43;18.57;;;16.60;;
68168;SDS011;54981;50.206;15.978;2024-02-26T16:48:43;18.67;;;17.05;;
68168;SDS011;54981;50.206;15.978;2024-02-26T17:03:44;19.75;;;17.95;;
68168;SDS011;54981;50.206;15.978;2024-02-26T17:18:44;18.88;;;17.25;;
68168;SDS011;54981;50.206;15.978;2024-02-26T17:33:44;24.00;;;21.92;;
68168;SDS011;54981;50.206;15.978;2024-02-26T17:48:45;23.50;;;21.38;;
68168;SDS011;54981;50.206;15.978;2024-02-26T18:03:46;24.33;;;22.13;;
68168;SDS011;54981;50.206;15.978;2024-02-26T18:18:48;25.25;;;22.85;;
68168;SDS011;54981;50.206;15.978;2024-02-26T18:33:48;26.23;;;23.63;;
68168;SDS011;54981;50.206;15.978;2024-02-26T18:48:49;28.65;;;26.08;;
68168;SDS011;54981;50.206;15.978;2024-02-26T19:03:49;26.70;;;24.02;;
68168;SDS011;54981;50.206;15.978;2024-02-26T19:18:51;26.20;;;23.77;;
68168;SDS011;54981;50.206;15.978;2024-02-26T19:33:51;23.88;;;21.80;;
68168;SDS011;54981;50.206;15.978;2024-02-26T19:48:52;30.55;;;27.83;;
68168;SDS011;54981;50.206;15.978;2024-02-26T20:03:52;38.22;;;34.75;;
68168;SDS011;54981;50.206;15.978;2024-02-26T20:18:53;29.83;;;27.15;;
68168;SDS011;54981;50.206;15.978;2024-02-26T20:33:53;35.35;;;31.98;;
68168;SDS011;54981;50.206;15.978;2024-02-26T20:48:53;22.95;;;20.42;;
68168;SDS011;54981;50.206;15.978;2024-02-26T21:03:54;28.52;;;22.05;;
68168;SDS011;54981;50.206;15.978;2024-02-26T21:18:54;34.60;;;22.42;;
68168;SDS011;54981;50.206;15.978;2024-02-26T21:33:54;29.17;;;24.15;;
68168;SDS011;54981;50.206;15.978;2024-02-26T21:48:55;28.77;;;23.85;;
68168;SDS011;54981;50.206;15.978;2024-02-26T22:03:56;23.88;;;21.17;;
68168;SDS011;54981;50.206;15.978;2024-02-26T22:19:00;31.63;;;24.73;;
68168;SDS011;54981;50.206;15.978;2024-02-26T22:34:05;33.33;;;25.77;;
68168;SDS011;54981;50.206;15.978;2024-02-26T22:49:06;35.03;;;27.95;;
68168;SDS011;54981;50.206;15.978;2024-02-26T23:04:06;33.28;;;29.10;;
68168;SDS011;54981;50.206;15.978;2024-02-26T23:19:11;34.08;;;28.23;;
68168;SDS011;54981;50.206;15.978;2024-02-26T23:34:14;38.72;;;30.58;;
68168;SDS011;54981;50.206;15.978;2024-02-26T23:49:15;34.08;;;25.73;;
